sensor_id;sensor_type;location;lat;lon;timestamp;P1;durP1;ratioP1;P2;durP2;ratioP2
25023;SDS011;13033;50.936;5.334;2023-06-22T00:01:04;13.80;;;5.22;;
25023;SDS011;13033;50.936;5.334;2023-06-22T00:03:31;16.65;;;6.03;;
25023;SDS011;13033;50.936;5.334;2023-06-22T00:05:56;13.43;;;5.72;;
25023;SDS011;13033;50.936;5.334;2023-06-22T00:08:22;18.13;;;5.55;;
25023;SDS011;13033;50.936;5.334;2023-06-22T00:10:48;15.85;;;5.75;;
25023;SDS011;13033;50.936;5.334;2023-06-22T00:13:14;16.52;;;5.38;;
25023;SDS011;13033;50.936;5.334;2023-06-22T00:15:41;18.45;;;6.25;;
25023;SDS011;13033;50.936;5.334;2023-06-22T00:18:07;18.17;;;6.90;;
25023;SDS011;13033;50.936;5.334;2023-06-22T00:20:34;15.80;;;6.47;;
25023;SDS011;13033;50.936;5.334;2023-06-22T00:23:02;22.30;;;6.43;;
25023;SDS011;13033;50.936;5.334;2023-06-22T00:25:34;20.65;;;7.43;;
25023;SDS011;13033;50.936;5.334;2023-06-22T00:28:00;31.52;;;9.20;;
25023;SDS011;13033;50.936;5.334;2023-06-22T00:30:27;39.33;;;12.10;;
25023;SDS011;13033;50.936;5.334;2023-06-22T00:32:52;55.15;;;15.80;;
25023;SDS011;13033;50.936;5.334;2023-06-22T00:35:18;84.72;;;20.15;;
25023;SDS011;13033;50.936;5.334;2023-06-22T00:37:44;67.80;;;17.80;;
25023;SDS011;13033;50.936;5.334;2023-06-22T00:40:10;72.88;;;20.13;;
25023;SDS011;13033;50.936;5.334;2023-06-22T00:42:37;83.00;;;22.35;;
25023;SDS011;13033;50.936;5.334;2023-06-22T00:45:04;94.05;;;23.30;;
25023;SDS011;13033;50.936;5.334;2023-06-22T00:47:30;93.00;;;24.70;;
25023;SDS011;13033;50.936;5.334;2023-06-22T00:49:56;104.18;;;23.83;;
25023;SDS011;13033;50.936;5.334;2023-06-22T00:52:22;95.90;;;24.48;;
25023;SDS011;13033;50.936;5.334;2023-06-22T00:54:52;89.72;;;22.58;;
25023;SDS011;13033;50.936;5.334;2023-06-22T00:57:18;78.32;;;21.35;;
25023;SDS011;13033;50.936;5.334;2023-06-22T00:59:45;76.05;;;20.58;;
25023;SDS011;13033;50.936;5.334;2023-06-22T01:02:13;68.25;;;18.70;;
25023;SDS011;13033;50.936;5.334;2023-06-22T01:04:40;78.63;;;20.02;;
25023;SDS011;13033;50.936;5.334;2023-06-22T01:12:59;77.47;;;19.50;;
25023;SDS011;13033;50.936;5.334;2023-06-22T01:15:31;75.50;;;19.58;;
25023;SDS011;13033;50.936;5.334;2023-06-22T01:18:03;78.32;;;19.73;;
25023;SDS011;13033;50.936;5.334;2023-06-22T01:20:30;66.82;;;18.17;;
25023;SDS011;13033;50.936;5.334;2023-06-22T01:25:28;65.35;;;17.60;;
25023;SDS011;13033;50.936;5.334;2023-06-22T01:30:59;64.90;;;16.73;;
25023;SDS011;13033;50.936;5.334;2023-06-22T01:33:31;57.53;;;16.67;;
25023;SDS011;13033;50.936;5.334;2023-06-22T01:36:00;58.47;;;15.27;;
25023;SDS011;13033;50.936;5.334;2023-06-22T01:38:27;55.28;;;14.35;;
25023;SDS011;13033;50.936;5.334;2023-06-22T01:40:54;52.25;;;14.20;;
25023;SDS011;13033;50.936;5.334;2023-06-22T01:43:22;50.28;;;14.57;;
25023;SDS011;13033;50.936;5.334;2023-06-22T01:45:51;43.83;;;13.27;;
25023;SDS011;13033;50.936;5.334;2023-06-22T01:48:17;57.75;;;14.00;;
25023;SDS011;13033;50.936;5.334;2023-06-22T01:50:44;51.22;;;13.88;;
25023;SDS011;13033;50.936;5.334;2023-06-22T01:53:10;47.50;;;12.68;;
25023;SDS011;13033;50.936;5.334;2023-06-22T01:55:36;30.92;;;11.60;;
25023;SDS011;13033;50.936;5.334;2023-06-22T01:58:01;38.30;;;12.55;;
25023;SDS011;13033;50.936;5.334;2023-06-22T02:00:28;37.70;;;12.30;;
25023;SDS011;13033;50.936;5.334;2023-06-22T02:03:02;38.58;;;11.65;;
25023;SDS011;13033;50.936;5.334;2023-06-22T02:05:36;35.33;;;11.07;;
25023;SDS011;13033;50.936;5.334;2023-06-22T02:08:10;35.40;;;11.25;;
25023;SDS011;13033;50.936;5.334;2023-06-22T02:10:43;32.53;;;11.13;;
25023;SDS011;13033;50.936;5.334;2023-06-22T02:13:10;29.05;;;10.27;;
25023;SDS011;13033;50.936;5.334;2023-06-22T02:15:37;29.15;;;10.07;;
25023;SDS011;13033;50.936;5.334;2023-06-22T02:18:03;29.70;;;10.25;;
25023;SDS011;13033;50.936;5.334;2023-06-22T02:20:30;24.00;;;9.55;;
25023;SDS011;13033;50.936;5.334;2023-06-22T02:22:55;18.90;;;9.45;;
25023;SDS011;13033;50.936;5.334;2023-06-22T02:25:21;22.35;;;9.10;;
25023;SDS011;13033;50.936;5.334;2023-06-22T02:27:47;17.30;;;9.23;;
25023;SDS011;13033;50.936;5.334;2023-06-22T02:30:13;15.63;;;9.02;;
25023;SDS011;13033;50.936;5.334;2023-06-22T02:32:40;15.90;;;9.82;;
25023;SDS011;13033;50.936;5.334;2023-06-22T02:35:07;18.10;;;10.73;;
25023;SDS011;13033;50.936;5.334;2023-06-22T02:37:34;18.42;;;10.00;;
25023;SDS011;13033;50.936;5.334;2023-06-22T02:40:04;21.60;;;10.82;;
25023;SDS011;13033;50.936;5.334;2023-06-22T02:42:32;21.55;;;10.57;;
25023;SDS011;13033;50.936;5.334;2023-06-22T02:44:58;17.13;;;10.68;;
25023;SDS011;13033;50.936;5.334;2023-06-22T02:47:23;16.70;;;11.77;;
25023;SDS011;13033;50.936;5.334;2023-06-22T02:49:49;17.77;;;11.27;;
25023;SDS011;13033;50.936;5.334;2023-06-22T02:52:14;20.17;;;11.65;;
25023;SDS011;13033;50.936;5.334;2023-06-22T02:54:40;24.52;;;13.52;;
25023;SDS011;13033;50.936;5.334;2023-06-22T02:57:06;22.77;;;13.02;;
25023;SDS011;13033;50.936;5.334;2023-06-22T02:59:31;20.35;;;13.68;;
25023;SDS011;13033;50.936;5.334;2023-06-22T03:01:57;18.60;;;13.90;;
25023;SDS011;13033;50.936;5.334;2023-06-22T03:04:22;19.73;;;13.85;;
25023;SDS011;13033;50.936;5.334;2023-06-22T03:06:48;24.58;;;14.73;;
25023;SDS011;13033;50.936;5.334;2023-06-22T03:09:16;18.45;;;14.38;;
25023;SDS011;13033;50.936;5.334;2023-06-22T03:11:42;20.85;;;14.35;;
25023;SDS011;13033;50.936;5.334;2023-06-22T03:14:08;20.80;;;14.77;;
25023;SDS011;13033;50.936;5.334;2023-06-22T03:16:33;22.98;;;14.52;;
25023;SDS011;13033;50.936;5.334;2023-06-22T03:18:59;21.63;;;14.60;;
25023;SDS011;13033;50.936;5.334;2023-06-22T03:21:27;20.77;;;15.20;;
25023;SDS011;13033;50.936;5.334;2023-06-22T03:23:53;19.05;;;14.82;;
25023;SDS011;13033;50.936;5.334;2023-06-22T03:26:19;23.15;;;16.02;;
25023;SDS011;13033;50.936;5.334;2023-06-22T03:28:45;20.38;;;16.77;;
25023;SDS011;13033;50.936;5.334;2023-06-22T03:31:11;23.88;;;16.52;;
25023;SDS011;13033;50.936;5.334;2023-06-22T03:33:37;21.75;;;16.88;;
25023;SDS011;13033;50.936;5.334;2023-06-22T03:36:03;21.67;;;16.08;;
25023;SDS011;13033;50.936;5.334;2023-06-22T03:38:28;21.40;;;16.48;;
25023;SDS011;13033;50.936;5.334;2023-06-22T03:40:54;20.98;;;16.77;;
25023;SDS011;13033;50.936;5.334;2023-06-22T03:43:20;23.13;;;16.10;;
25023;SDS011;13033;50.936;5.334;2023-06-22T03:45:46;26.20;;;16.85;;
25023;SDS011;13033;50.936;5.334;2023-06-22T03:48:11;21.95;;;16.83;;
25023;SDS011;13033;50.936;5.334;2023-06-22T03:50:37;23.95;;;17.52;;
25023;SDS011;13033;50.936;5.334;2023-06-22T03:53:03;23.27;;;16.88;;
25023;SDS011;13033;50.936;5.334;2023-06-22T03:55:29;24.98;;;18.27;;
25023;SDS011;13033;50.936;5.334;2023-06-22T03:57:55;22.52;;;17.73;;
25023;SDS011;13033;50.936;5.334;2023-06-22T04:00:22;24.10;;;17.70;;
25023;SDS011;13033;50.936;5.334;2023-06-22T04:02:48;21.30;;;16.40;;
25023;SDS011;13033;50.936;5.334;2023-06-22T04:05:14;21.23;;;17.02;;
25023;SDS011;13033;50.936;5.334;2023-06-22T04:07:42;24.77;;;16.95;;
25023;SDS011;13033;50.936;5.334;2023-06-22T04:10:08;22.98;;;17.80;;
25023;SDS011;13033;50.936;5.334;2023-06-22T04:12:34;21.25;;;17.30;;
25023;SDS011;13033;50.936;5.334;2023-06-22T04:14:59;22.48;;;16.08;;
25023;SDS011;13033;50.936;5.334;2023-06-22T04:17:25;23.38;;;16.83;;
25023;SDS011;13033;50.936;5.334;2023-06-22T04:19:51;21.92;;;16.67;;
25023;SDS011;13033;50.936;5.334;2023-06-22T04:22:16;19.67;;;16.10;;
25023;SDS011;13033;50.936;5.334;2023-06-22T04:24:42;21.13;;;16.02;;
25023;SDS011;13033;50.936;5.334;2023-06-22T04:27:08;21.17;;;16.20;;
25023;SDS011;13033;50.936;5.334;2023-06-22T04:29:34;21.75;;;16.83;;
25023;SDS011;13033;50.936;5.334;2023-06-22T04:32:00;26.77;;;16.98;;
25023;SDS011;13033;50.936;5.334;2023-06-22T04:34:30;20.80;;;15.95;;
25023;SDS011;13033;50.936;5.334;2023-06-22T04:36:56;23.25;;;16.98;;
25023;SDS011;13033;50.936;5.334;2023-06-22T04:39:22;24.90;;;16.92;;
25023;SDS011;13033;50.936;5.334;2023-06-22T04:41:48;22.70;;;18.52;;
25023;SDS011;13033;50.936;5.334;2023-06-22T04:44:16;24.33;;;18.92;;
25023;SDS011;13033;50.936;5.334;2023-06-22T04:46:49;23.33;;;18.02;;
25023;SDS011;13033;50.936;5.334;2023-06-22T04:49:33;24.13;;;18.75;;
25023;SDS011;13033;50.936;5.334;2023-06-22T04:52:08;23.30;;;19.08;;
25023;SDS011;13033;50.936;5.334;2023-06-22T04:54:35;30.63;;;19.75;;
25023;SDS011;13033;50.936;5.334;2023-06-22T04:57:03;31.88;;;20.17;;
25023;SDS011;13033;50.936;5.334;2023-06-22T04:59:35;29.17;;;20.55;;
25023;SDS011;13033;50.936;5.334;2023-06-22T05:02:03;26.98;;;20.65;;
25023;SDS011;13033;50.936;5.334;2023-06-22T05:04:29;27.98;;;20.20;;
25023;SDS011;13033;50.936;5.334;2023-06-22T05:07:00;24.67;;;21.70;;
25023;SDS011;13033;50.936;5.334;2023-06-22T05:09:27;25.83;;;20.10;;
25023;SDS011;13033;50.936;5.334;2023-06-22T05:11:54;22.73;;;19.08;;
25023;SDS011;13033;50.936;5.334;2023-06-22T05:14:21;28.25;;;19.42;;
25023;SDS011;13033;50.936;5.334;2023-06-22T05:16:48;23.17;;;19.17;;
25023;SDS011;13033;50.936;5.334;2023-06-22T05:19:14;21.02;;;17.90;;
25023;SDS011;13033;50.936;5.334;2023-06-22T05:21:42;27.40;;;18.60;;
25023;SDS011;13033;50.936;5.334;2023-06-22T05:24:08;21.45;;;17.63;;
25023;SDS011;13033;50.936;5.334;2023-06-22T05:26:34;24.05;;;19.17;;
25023;SDS011;13033;50.936;5.334;2023-06-22T05:29:01;25.20;;;18.77;;
25023;SDS011;13033;50.936;5.334;2023-06-22T05:31:28;25.20;;;20.98;;
25023;SDS011;13033;50.936;5.334;2023-06-22T05:33:54;25.98;;;21.48;;
25023;SDS011;13033;50.936;5.334;2023-06-22T05:36:21;28.50;;;22.40;;
25023;SDS011;13033;50.936;5.334;2023-06-22T05:38:50;31.08;;;22.40;;
25023;SDS011;13033;50.936;5.334;2023-06-22T05:41:19;32.33;;;23.33;;
25023;SDS011;13033;50.936;5.334;2023-06-22T05:43:44;30.23;;;23.65;;
25023;SDS011;13033;50.936;5.334;2023-06-22T05:46:10;32.95;;;23.67;;
25023;SDS011;13033;50.936;5.334;2023-06-22T05:48:36;29.90;;;23.45;;
25023;SDS011;13033;50.936;5.334;2023-06-22T05:51:01;34.88;;;24.58;;
25023;SDS011;13033;50.936;5.334;2023-06-22T05:53:27;33.60;;;23.55;;
25023;SDS011;13033;50.936;5.334;2023-06-22T05:55:53;30.70;;;23.63;;
25023;SDS011;13033;50.936;5.334;2023-06-22T05:58:19;30.27;;;24.08;;
25023;SDS011;13033;50.936;5.334;2023-06-22T06:00:44;28.17;;;22.48;;
25023;SDS011;13033;50.936;5.334;2023-06-22T06:03:11;29.08;;;23.35;;
25023;SDS011;13033;50.936;5.334;2023-06-22T06:05:37;30.90;;;23.73;;
25023;SDS011;13033;50.936;5.334;2023-06-22T06:08:03;29.83;;;24.05;;
25023;SDS011;13033;50.936;5.334;2023-06-22T06:10:31;30.33;;;23.17;;
25023;SDS011;13033;50.936;5.334;2023-06-22T06:12:58;32.90;;;23.33;;
25023;SDS011;13033;50.936;5.334;2023-06-22T06:15:24;32.58;;;23.67;;
25023;SDS011;13033;50.936;5.334;2023-06-22T06:17:50;32.08;;;23.27;;
25023;SDS011;13033;50.936;5.334;2023-06-22T06:20:18;30.50;;;23.25;;
25023;SDS011;13033;50.936;5.334;2023-06-22T06:22:47;38.88;;;24.17;;
25023;SDS011;13033;50.936;5.334;2023-06-22T06:25:13;33.80;;;25.02;;
25023;SDS011;13033;50.936;5.334;2023-06-22T06:27:45;32.08;;;23.40;;
25023;SDS011;13033;50.936;5.334;2023-06-22T06:30:12;30.75;;;22.77;;
25023;SDS011;13033;50.936;5.334;2023-06-22T06:32:39;31.40;;;23.98;;
25023;SDS011;13033;50.936;5.334;2023-06-22T06:35:07;28.80;;;23.08;;
25023;SDS011;13033;50.936;5.334;2023-06-22T06:37:38;29.58;;;23.15;;
25023;SDS011;13033;50.936;5.334;2023-06-22T06:40:08;30.23;;;23.35;;
25023;SDS011;13033;50.936;5.334;2023-06-22T06:42:39;35.00;;;23.90;;
25023;SDS011;13033;50.936;5.334;2023-06-22T06:45:10;32.97;;;24.27;;
25023;SDS011;13033;50.936;5.334;2023-06-22T06:47:37;28.10;;;22.83;;
25023;SDS011;13033;50.936;5.334;2023-06-22T06:50:04;27.15;;;22.30;;
25023;SDS011;13033;50.936;5.334;2023-06-22T06:52:30;30.35;;;23.88;;
25023;SDS011;13033;50.936;5.334;2023-06-22T06:54:55;28.63;;;21.85;;
25023;SDS011;13033;50.936;5.334;2023-06-22T06:57:21;28.77;;;22.08;;
25023;SDS011;13033;50.936;5.334;2023-06-22T06:59:47;30.05;;;22.10;;
25023;SDS011;13033;50.936;5.334;2023-06-22T07:02:14;32.25;;;23.60;;
25023;SDS011;13033;50.936;5.334;2023-06-22T07:04:40;26.77;;;23.90;;
25023;SDS011;13033;50.936;5.334;2023-06-22T07:07:06;27.77;;;23.05;;
25023;SDS011;13033;50.936;5.334;2023-06-22T07:09:32;28.27;;;22.55;;
25023;SDS011;13033;50.936;5.334;2023-06-22T07:11:57;27.45;;;22.40;;
25023;SDS011;13033;50.936;5.334;2023-06-22T07:14:23;25.13;;;21.90;;
25023;SDS011;13033;50.936;5.334;2023-06-22T07:16:49;29.20;;;20.98;;
25023;SDS011;13033;50.936;5.334;2023-06-22T07:19:14;23.85;;;19.17;;
25023;SDS011;13033;50.936;5.334;2023-06-22T07:21:40;24.85;;;19.65;;
25023;SDS011;13033;50.936;5.334;2023-06-22T07:24:06;28.27;;;20.52;;
25023;SDS011;13033;50.936;5.334;2023-06-22T07:26:32;22.98;;;19.67;;
25023;SDS011;13033;50.936;5.334;2023-06-22T07:28:58;25.83;;;19.60;;
25023;SDS011;13033;50.936;5.334;2023-06-22T07:31:24;23.10;;;19.67;;
25023;SDS011;13033;50.936;5.334;2023-06-22T07:33:51;30.27;;;20.40;;
25023;SDS011;13033;50.936;5.334;2023-06-22T07:36:16;25.58;;;19.30;;
25023;SDS011;13033;50.936;5.334;2023-06-22T07:38:43;28.33;;;21.02;;
25023;SDS011;13033;50.936;5.334;2023-06-22T07:41:09;27.42;;;20.42;;
25023;SDS011;13033;50.936;5.334;2023-06-22T07:43:34;31.00;;;20.73;;
25023;SDS011;13033;50.936;5.334;2023-06-22T07:46:05;28.98;;;20.25;;
25023;SDS011;13033;50.936;5.334;2023-06-22T07:48:31;28.25;;;20.35;;
25023;SDS011;13033;50.936;5.334;2023-06-22T07:50:57;28.10;;;20.25;;
25023;SDS011;13033;50.936;5.334;2023-06-22T07:53:22;28.17;;;21.35;;
25023;SDS011;13033;50.936;5.334;2023-06-22T07:55:49;29.80;;;21.23;;
25023;SDS011;13033;50.936;5.334;2023-06-22T07:58:15;27.42;;;21.67;;
25023;SDS011;13033;50.936;5.334;2023-06-22T08:00:45;33.80;;;22.73;;
25023;SDS011;13033;50.936;5.334;2023-06-22T08:03:13;28.75;;;21.77;;
25023;SDS011;13033;50.936;5.334;2023-06-22T08:05:38;29.35;;;22.20;;
25023;SDS011;13033;50.936;5.334;2023-06-22T08:08:04;30.40;;;22.42;;
25023;SDS011;13033;50.936;5.334;2023-06-22T08:10:30;25.25;;;21.75;;
25023;SDS011;13033;50.936;5.334;2023-06-22T08:12:55;29.40;;;21.95;;
25023;SDS011;13033;50.936;5.334;2023-06-22T08:15:21;29.20;;;21.42;;
25023;SDS011;13033;50.936;5.334;2023-06-22T08:17:47;25.40;;;21.65;;
25023;SDS011;13033;50.936;5.334;2023-06-22T08:20:12;29.48;;;22.55;;
25023;SDS011;13033;50.936;5.334;2023-06-22T08:22:41;29.85;;;22.02;;
25023;SDS011;13033;50.936;5.334;2023-06-22T08:25:08;27.75;;;22.58;;
25023;SDS011;13033;50.936;5.334;2023-06-22T08:27:34;27.58;;;21.48;;
25023;SDS011;13033;50.936;5.334;2023-06-22T08:30:00;30.20;;;21.80;;
25023;SDS011;13033;50.936;5.334;2023-06-22T08:32:27;29.63;;;21.30;;
25023;SDS011;13033;50.936;5.334;2023-06-22T08:34:56;27.45;;;22.65;;
25023;SDS011;13033;50.936;5.334;2023-06-22T08:37:22;29.73;;;21.80;;
25023;SDS011;13033;50.936;5.334;2023-06-22T08:39:55;24.63;;;21.23;;
25023;SDS011;13033;50.936;5.334;2023-06-22T08:42:28;24.98;;;21.15;;
25023;SDS011;13033;50.936;5.334;2023-06-22T08:44:53;27.25;;;21.85;;
25023;SDS011;13033;50.936;5.334;2023-06-22T08:47:19;24.13;;;21.45;;
25023;SDS011;13033;50.936;5.334;2023-06-22T08:49:45;27.85;;;21.27;;
25023;SDS011;13033;50.936;5.334;2023-06-22T08:52:11;27.48;;;22.52;;
25023;SDS011;13033;50.936;5.334;2023-06-22T08:54:36;23.75;;;21.10;;
25023;SDS011;13033;50.936;5.334;2023-06-22T08:57:02;28.60;;;22.20;;
25023;SDS011;13033;50.936;5.334;2023-06-22T08:59:28;24.75;;;22.20;;
25023;SDS011;13033;50.936;5.334;2023-06-22T09:01:53;27.90;;;23.05;;
25023;SDS011;13033;50.936;5.334;2023-06-22T09:04:19;27.38;;;23.80;;
25023;SDS011;13033;50.936;5.334;2023-06-22T09:06:47;28.13;;;25.10;;
25023;SDS011;13033;50.936;5.334;2023-06-22T09:09:13;28.27;;;23.58;;
25023;SDS011;13033;50.936;5.334;2023-06-22T09:11:40;26.55;;;22.90;;
25023;SDS011;13033;50.936;5.334;2023-06-22T09:14:06;27.48;;;24.13;;
25023;SDS011;13033;50.936;5.334;2023-06-22T09:16:32;26.85;;;22.55;;
25023;SDS011;13033;50.936;5.334;2023-06-22T09:18:59;27.73;;;23.60;;
25023;SDS011;13033;50.936;5.334;2023-06-22T09:21:24;27.60;;;24.67;;
25023;SDS011;13033;50.936;5.334;2023-06-22T09:23:50;27.42;;;24.52;;
25023;SDS011;13033;50.936;5.334;2023-06-22T09:26:19;30.00;;;25.17;;
25023;SDS011;13033;50.936;5.334;2023-06-22T09:28:46;28.27;;;24.65;;
25023;SDS011;13033;50.936;5.334;2023-06-22T09:31:12;28.63;;;24.90;;
25023;SDS011;13033;50.936;5.334;2023-06-22T09:33:39;29.00;;;25.23;;
25023;SDS011;13033;50.936;5.334;2023-06-22T09:36:05;29.45;;;24.90;;
25023;SDS011;13033;50.936;5.334;2023-06-22T09:38:35;29.60;;;25.33;;
25023;SDS011;13033;50.936;5.334;2023-06-22T09:41:01;28.38;;;25.30;;
25023;SDS011;13033;50.936;5.334;2023-06-22T09:43:27;29.63;;;25.20;;
25023;SDS011;13033;50.936;5.334;2023-06-22T09:45:53;29.73;;;26.55;;
25023;SDS011;13033;50.936;5.334;2023-06-22T09:48:19;31.08;;;26.23;;
25023;SDS011;13033;50.936;5.334;2023-06-22T09:50:45;31.27;;;25.05;;
25023;SDS011;13033;50.936;5.334;2023-06-22T09:53:11;33.17;;;27.00;;
25023;SDS011;13033;50.936;5.334;2023-06-22T09:55:36;30.77;;;27.05;;
25023;SDS011;13033;50.936;5.334;2023-06-22T09:58:02;34.03;;;28.98;;
25023;SDS011;13033;50.936;5.334;2023-06-22T10:00:27;32.85;;;28.73;;
25023;SDS011;13033;50.936;5.334;2023-06-22T10:02:53;36.88;;;29.20;;
25023;SDS011;13033;50.936;5.334;2023-06-22T10:05:20;33.95;;;30.33;;
25023;SDS011;13033;50.936;5.334;2023-06-22T10:07:46;34.90;;;31.00;;
25023;SDS011;13033;50.936;5.334;2023-06-22T10:10:12;34.72;;;30.90;;
25023;SDS011;13033;50.936;5.334;2023-06-22T10:12:45;34.65;;;30.98;;
25023;SDS011;13033;50.936;5.334;2023-06-22T10:15:12;35.83;;;32.03;;
25023;SDS011;13033;50.936;5.334;2023-06-22T10:17:39;39.90;;;34.10;;
25023;SDS011;13033;50.936;5.334;2023-06-22T10:20:05;38.45;;;34.30;;
25023;SDS011;13033;50.936;5.334;2023-06-22T10:22:42;39.03;;;34.67;;
25023;SDS011;13033;50.936;5.334;2023-06-22T10:25:09;45.47;;;37.63;;
25023;SDS011;13033;50.936;5.334;2023-06-22T10:27:35;44.75;;;37.47;;
25023;SDS011;13033;50.936;5.334;2023-06-22T10:30:01;48.33;;;40.05;;
25023;SDS011;13033;50.936;5.334;2023-06-22T10:32:27;49.47;;;39.60;;
25023;SDS011;13033;50.936;5.334;2023-06-22T10:34:53;49.38;;;41.42;;
25023;SDS011;13033;50.936;5.334;2023-06-22T10:37:19;53.38;;;43.83;;
25023;SDS011;13033;50.936;5.334;2023-06-22T10:39:45;54.22;;;44.90;;
25023;SDS011;13033;50.936;5.334;2023-06-22T10:42:11;53.47;;;44.83;;
25023;SDS011;13033;50.936;5.334;2023-06-22T10:44:37;62.60;;;48.97;;
25023;SDS011;13033;50.936;5.334;2023-06-22T10:47:04;58.03;;;49.22;;
25023;SDS011;13033;50.936;5.334;2023-06-22T10:49:30;58.40;;;49.10;;
25023;SDS011;13033;50.936;5.334;2023-06-22T10:51:55;57.50;;;48.95;;
25023;SDS011;13033;50.936;5.334;2023-06-22T10:54:21;62.30;;;51.08;;
25023;SDS011;13033;50.936;5.334;2023-06-22T10:56:46;62.72;;;51.03;;
25023;SDS011;13033;50.936;5.334;2023-06-22T10:59:12;58.38;;;48.45;;
25023;SDS011;13033;50.936;5.334;2023-06-22T11:01:38;55.10;;;47.15;;
25023;SDS011;13033;50.936;5.334;2023-06-22T11:04:03;53.17;;;45.42;;
25023;SDS011;13033;50.936;5.334;2023-06-22T11:06:29;55.05;;;47.28;;
25023;SDS011;13033;50.936;5.334;2023-06-22T11:08:55;53.35;;;43.85;;
25023;SDS011;13033;50.936;5.334;2023-06-22T11:11:20;51.63;;;44.72;;
25023;SDS011;13033;50.936;5.334;2023-06-22T11:13:46;54.80;;;44.72;;
25023;SDS011;13033;50.936;5.334;2023-06-22T11:16:12;52.60;;;44.15;;
25023;SDS011;13033;50.936;5.334;2023-06-22T11:18:37;53.92;;;46.28;;
25023;SDS011;13033;50.936;5.334;2023-06-22T11:21:03;54.17;;;45.83;;
25023;SDS011;13033;50.936;5.334;2023-06-22T11:23:29;54.25;;;46.97;;
25023;SDS011;13033;50.936;5.334;2023-06-22T11:25:55;51.78;;;43.35;;
25023;SDS011;13033;50.936;5.334;2023-06-22T11:28:20;52.58;;;44.50;;
25023;SDS011;13033;50.936;5.334;2023-06-22T11:30:46;50.33;;;42.85;;
25023;SDS011;13033;50.936;5.334;2023-06-22T11:33:12;48.78;;;41.50;;
25023;SDS011;13033;50.936;5.334;2023-06-22T11:35:37;45.28;;;40.40;;
25023;SDS011;13033;50.936;5.334;2023-06-22T11:38:03;47.60;;;40.50;;
25023;SDS011;13033;50.936;5.334;2023-06-22T11:40:30;45.70;;;37.95;;
25023;SDS011;13033;50.936;5.334;2023-06-22T11:42:56;44.50;;;38.55;;
25023;SDS011;13033;50.936;5.334;2023-06-22T11:45:21;45.65;;;39.53;;
25023;SDS011;13033;50.936;5.334;2023-06-22T11:47:47;47.42;;;40.17;;
25023;SDS011;13033;50.936;5.334;2023-06-22T11:50:13;42.85;;;38.17;;
25023;SDS011;13033;50.936;5.334;2023-06-22T11:52:39;41.97;;;37.40;;
25023;SDS011;13033;50.936;5.334;2023-06-22T11:55:05;43.97;;;38.13;;
25023;SDS011;13033;50.936;5.334;2023-06-22T11:57:38;43.13;;;38.47;;
25023;SDS011;13033;50.936;5.334;2023-06-22T12:00:18;45.03;;;39.80;;
25023;SDS011;13033;50.936;5.334;2023-06-22T12:02:44;42.55;;;37.95;;
25023;SDS011;13033;50.936;5.334;2023-06-22T12:05:12;44.72;;;38.10;;
25023;SDS011;13033;50.936;5.334;2023-06-22T12:07:38;48.08;;;40.80;;
25023;SDS011;13033;50.936;5.334;2023-06-22T12:10:04;45.75;;;40.67;;
25023;SDS011;13033;50.936;5.334;2023-06-22T12:12:30;49.63;;;41.33;;
25023;SDS011;13033;50.936;5.334;2023-06-22T12:14:56;48.05;;;41.65;;
25023;SDS011;13033;50.936;5.334;2023-06-22T12:17:21;47.30;;;41.85;;
25023;SDS011;13033;50.936;5.334;2023-06-22T12:19:47;50.63;;;42.63;;
25023;SDS011;13033;50.936;5.334;2023-06-22T12:22:12;49.42;;;42.92;;
25023;SDS011;13033;50.936;5.334;2023-06-22T12:24:38;51.72;;;43.97;;
25023;SDS011;13033;50.936;5.334;2023-06-22T12:27:04;56.03;;;46.00;;
25023;SDS011;13033;50.936;5.334;2023-06-22T12:29:30;55.47;;;44.95;;
25023;SDS011;13033;50.936;5.334;2023-06-22T12:31:55;52.63;;;45.67;;
25023;SDS011;13033;50.936;5.334;2023-06-22T12:34:21;54.08;;;45.47;;
25023;SDS011;13033;50.936;5.334;2023-06-22T12:36:47;59.63;;;50.67;;
25023;SDS011;13033;50.936;5.334;2023-06-22T12:39:13;57.70;;;48.75;;
25023;SDS011;13033;50.936;5.334;2023-06-22T12:41:39;56.25;;;47.10;;
25023;SDS011;13033;50.936;5.334;2023-06-22T12:44:05;56.38;;;47.20;;
25023;SDS011;13033;50.936;5.334;2023-06-22T12:46:30;54.90;;;47.92;;
25023;SDS011;13033;50.936;5.334;2023-06-22T12:49:02;56.17;;;48.45;;
25023;SDS011;13033;50.936;5.334;2023-06-22T12:51:29;59.15;;;48.35;;
25023;SDS011;13033;50.936;5.334;2023-06-22T12:53:55;55.20;;;47.33;;
25023;SDS011;13033;50.936;5.334;2023-06-22T12:56:21;56.67;;;49.22;;
25023;SDS011;13033;50.936;5.334;2023-06-22T12:58:47;55.53;;;46.50;;
25023;SDS011;13033;50.936;5.334;2023-06-22T13:01:13;55.35;;;47.75;;
25023;SDS011;13033;50.936;5.334;2023-06-22T13:03:39;58.28;;;48.42;;
25023;SDS011;13033;50.936;5.334;2023-06-22T13:06:05;54.13;;;48.08;;
25023;SDS011;13033;50.936;5.334;2023-06-22T13:08:31;59.47;;;48.35;;
25023;SDS011;13033;50.936;5.334;2023-06-22T13:10:56;58.22;;;48.67;;
25023;SDS011;13033;50.936;5.334;2023-06-22T13:13:25;61.95;;;50.60;;
25023;SDS011;13033;50.936;5.334;2023-06-22T13:15:52;58.22;;;48.58;;
25023;SDS011;13033;50.936;5.334;2023-06-22T13:18:19;60.63;;;50.20;;
25023;SDS011;13033;50.936;5.334;2023-06-22T13:20:44;63.90;;;51.10;;
25023;SDS011;13033;50.936;5.334;2023-06-22T13:23:10;63.33;;;49.78;;
25023;SDS011;13033;50.936;5.334;2023-06-22T13:25:36;55.75;;;46.78;;
25023;SDS011;13033;50.936;5.334;2023-06-22T13:28:02;58.30;;;45.28;;
25023;SDS011;13033;50.936;5.334;2023-06-22T13:30:27;53.58;;;43.60;;
25023;SDS011;13033;50.936;5.334;2023-06-22T13:32:53;58.70;;;46.72;;
25023;SDS011;13033;50.936;5.334;2023-06-22T13:35:19;61.78;;;45.13;;
25023;SDS011;13033;50.936;5.334;2023-06-22T13:37:44;57.38;;;41.00;;
25023;SDS011;13033;50.936;5.334;2023-06-22T13:40:10;46.33;;;38.38;;
25023;SDS011;13033;50.936;5.334;2023-06-22T13:42:36;53.83;;;39.58;;
25023;SDS011;13033;50.936;5.334;2023-06-22T13:45:02;51.30;;;37.40;;
25023;SDS011;13033;50.936;5.334;2023-06-22T13:47:28;59.47;;;40.58;;
25023;SDS011;13033;50.936;5.334;2023-06-22T13:49:54;45.92;;;37.85;;
25023;SDS011;13033;50.936;5.334;2023-06-22T13:52:20;46.30;;;39.55;;
25023;SDS011;13033;50.936;5.334;2023-06-22T13:54:46;54.92;;;42.50;;
25023;SDS011;13033;50.936;5.334;2023-06-22T13:57:11;51.10;;;40.83;;
25023;SDS011;13033;50.936;5.334;2023-06-22T13:59:37;55.40;;;44.50;;
25023;SDS011;13033;50.936;5.334;2023-06-22T14:02:03;58.78;;;45.88;;
25023;SDS011;13033;50.936;5.334;2023-06-22T14:04:28;58.88;;;45.50;;
25023;SDS011;13033;50.936;5.334;2023-06-22T14:06:54;68.78;;;48.80;;
25023;SDS011;13033;50.936;5.334;2023-06-22T14:09:22;65.95;;;49.53;;
25023;SDS011;13033;50.936;5.334;2023-06-22T14:11:47;67.00;;;47.47;;
25023;SDS011;13033;50.936;5.334;2023-06-22T14:14:13;69.88;;;51.40;;
25023;SDS011;13033;50.936;5.334;2023-06-22T14:16:39;64.25;;;46.22;;
25023;SDS011;13033;50.936;5.334;2023-06-22T14:19:07;66.18;;;47.53;;
25023;SDS011;13033;50.936;5.334;2023-06-22T14:21:32;60.38;;;43.25;;
25023;SDS011;13033;50.936;5.334;2023-06-22T14:23:58;69.88;;;48.47;;
25023;SDS011;13033;50.936;5.334;2023-06-22T14:26:24;64.07;;;47.45;;
25023;SDS011;13033;50.936;5.334;2023-06-22T14:28:49;69.82;;;49.53;;